Standish, Maine
Current Conditions -  °F | °C
As of 9:51 AM on Monday 24 Nov 2014 (Local Time) from KPWM Reporting Station
Heavy Rain Heavy Rain  
Wind Chill: 57°   Ceiling: 600
Heat Index: 57°   Visibility: 1.5mi
Dew Point: 55°   Wind: 20mph
Humidity: 93%   Direction: 170°S
Pressure: 29.75"   Gusts: 37mph
Location:  43.74°N, 70.55°W
Report Text: KPWM 241451Z 17017G32KT 1 1/2SM +RA BR OVC006 14/13 A2975 RMK AO2 PK WND 16032/1443 PRESFR SLP074 P0023 60055 T01390128 58061
Loading
Personal Weather Stations






























Interactive Weather Map New forecast layout! Learn more

10-Day Weather Forecast

Advertisements
Track Severe Weather on mobile